This is the latest recevied weather packets stored in our database for station/object W8CEN. If no packets are shown the sender has not sent any weather packets the latest 10 day(s).
| Time | Temp. | Humidity | Pressure | Rain* | Wind** | Luminosity | Snow |
|---|---|---|---|---|---|---|---|
| 1777576706 | 15° C | 40% | 992.9 hPa | 0 mm | - | 301 W/m² | - |
| 1777576404 | 15° C | 40% | 993 hPa | 0 mm | - | 401 W/m² | - |
| 1777576101 | 15° C | 40% | 993.2 hPa | 0 mm | - | 422 W/m² | - |
| 1777575797 | 15° C | 40% | 993.3 hPa | 0 mm | - | 842 W/m² | - |
| 1777575494 | 14.44° C | 43% | 993.3 hPa | 0 mm | - | 1046 W/m² | - |
| 1777575190 | 15° C | 41% | 993.3 hPa | 0 mm | - | 233 W/m² | - |
| 1777574886 | 15.56° C | 41% | 993.3 hPa | 0 mm | - | 210 W/m² | - |
| 1777574583 | 15° C | 43% | 993.4 hPa | 0 mm | - | 979 W/m² | - |
| 1777574279 | 13.89° C | 45% | 993.4 hPa | 0 mm | - | 942 W/m² | - |
| 1777573974 | 13.89° C | 44% | 993.3 hPa | 0 mm | - | 355 W/m² | - |
| 1777573669 | 13.89° C | 45% | 993.4 hPa | 0 mm | - | 420 W/m² | - |
| 1777573366 | 13.89° C | 46% | 993.5 hPa | 0 mm | - | 295 W/m² | - |
| 1777573061 | 14.44° C | 43% | 993.4 hPa | 0 mm | - | 286 W/m² | - |
| 1777572759 | 14.44° C | 46% | 993.5 hPa | 0 mm | - | 337 W/m² | - |
| 1777572459 | 13.89° C | 50% | 993.4 hPa | 0 mm | - | 1137 W/m² | - |
| 1777572156 | 13.89° C | 47% | 993.4 hPa | 0 mm | - | 328 W/m² | - |
| 1777571851 | 13.89° C | 47% | 993.2 hPa | 0 mm | - | 388 W/m² | - |
| 1777571547 | 14.44° C | 48% | 993.3 hPa | 0 mm | - | 283 W/m² | - |
| 1777571244 | 14.44° C | 45% | 993.6 hPa | 0 mm | - | 733 W/m² | - |
| 1777570940 | 13.33° C | 48% | 993.6 hPa | 0 mm | - | 1143 W/m² | - |
| 1777570635 | 12.78° C | 53% | 993.5 hPa | 0 mm | - | 285 W/m² | - |
| 1777570333 | 13.33° C | 51% | 993.4 hPa | 0 mm | - | 205 W/m² | - |
| 1777570028 | 13.89° C | 51% | 993.6 hPa | 0 mm | - | 202 W/m² | - |
| 1777569724 | 13.33° C | 53% | 993.4 hPa | 0 mm | - | 464 W/m² | - |
| 1777569420 | 11.67° C | 57% | 993.9 hPa | 0 mm | - | 1090 W/m² | - |
* Rain latest hour (hover to see other rain measurements)
** Current wind speed in m/s (hover to see current wind gust speed)